sensor_id;sensor_type;location;lat;lon;timestamp;temperature;humidity
48515;DHT22;34309;47.260;2.796;2023-06-24T00:01:07;24.60;31.20
48515;DHT22;34309;47.260;2.796;2023-06-24T00:03:41;24.60;31.00
48515;DHT22;34309;47.260;2.796;2023-06-24T00:06:19;24.60;31.30
48515;DHT22;34309;47.260;2.796;2023-06-24T00:08:53;24.60;31.10
48515;DHT22;34309;47.260;2.796;2023-06-24T00:11:32;24.50;31.00
48515;DHT22;34309;47.260;2.796;2023-06-24T00:14:08;24.60;31.40
48515;DHT22;34309;47.260;2.796;2023-06-24T00:16:44;24.60;31.30
48515;DHT22;34309;47.260;2.796;2023-06-24T00:19:25;24.50;31.20
48515;DHT22;34309;47.260;2.796;2023-06-24T00:22:01;24.50;31.30
48515;DHT22;34309;47.260;2.796;2023-06-24T00:24:35;24.50;31.20
48515;DHT22;34309;47.260;2.796;2023-06-24T00:27:09;24.50;31.30
48515;DHT22;34309;47.260;2.796;2023-06-24T00:29:43;24.50;31.30
48515;DHT22;34309;47.260;2.796;2023-06-24T00:32:18;24.50;31.20
48515;DHT22;34309;47.260;2.796;2023-06-24T00:34:52;24.50;31.20
48515;DHT22;34309;47.260;2.796;2023-06-24T00:37:28;24.50;31.20
48515;DHT22;34309;47.260;2.796;2023-06-24T00:40:02;24.50;31.20
48515;DHT22;34309;47.260;2.796;2023-06-24T00:42:37;24.50;31.20
48515;DHT22;34309;47.260;2.796;2023-06-24T00:45:11;24.50;31.20
48515;DHT22;34309;47.260;2.796;2023-06-24T00:47:47;24.50;31.30
48515;DHT22;34309;47.260;2.796;2023-06-24T00:50:21;24.50;31.30
48515;DHT22;34309;47.260;2.796;2023-06-24T00:52:55;24.50;31.30
48515;DHT22;34309;47.260;2.796;2023-06-24T00:55:28;24.50;31.40
48515;DHT22;34309;47.260;2.796;2023-06-24T00:58:02;24.50;31.30
48515;DHT22;34309;47.260;2.796;2023-06-24T01:00:36;24.50;31.50
48515;DHT22;34309;47.260;2.796;2023-06-24T01:03:12;24.40;31.40
48515;DHT22;34309;47.260;2.796;2023-06-24T01:05:47;24.50;31.40
48515;DHT22;34309;47.260;2.796;2023-06-24T01:08:21;24.40;31.30
48515;DHT22;34309;47.260;2.796;2023-06-24T01:10:56;24.40;31.20
48515;DHT22;34309;47.260;2.796;2023-06-24T01:13:29;24.40;31.30
48515;DHT22;34309;47.260;2.796;2023-06-24T01:16:08;24.40;31.20
48515;DHT22;34309;47.260;2.796;2023-06-24T01:18:48;24.40;31.20
48515;DHT22;34309;47.260;2.796;2023-06-24T01:21:33;24.40;31.30
48515;DHT22;34309;47.260;2.796;2023-06-24T01:24:31;24.40;31.30
48515;DHT22;34309;47.260;2.796;2023-06-24T01:33:11;24.30;31.20
48515;DHT22;34309;47.260;2.796;2023-06-24T01:35:48;24.40;31.30
48515;DHT22;34309;47.260;2.796;2023-06-24T01:38:24;24.30;31.20
48515;DHT22;34309;47.260;2.796;2023-06-24T01:41:01;24.30;31.20
48515;DHT22;34309;47.260;2.796;2023-06-24T01:43:37;24.30;31.20
48515;DHT22;34309;47.260;2.796;2023-06-24T01:46:12;24.30;31.10
48515;DHT22;34309;47.260;2.796;2023-06-24T01:48:49;24.40;31.20
48515;DHT22;34309;47.260;2.796;2023-06-24T01:51:24;24.30;31.10
48515;DHT22;34309;47.260;2.796;2023-06-24T01:54:07;24.30;31.20
48515;DHT22;34309;47.260;2.796;2023-06-24T01:56:44;24.30;31.20
48515;DHT22;34309;47.260;2.796;2023-06-24T01:59:21;24.30;31.10
48515;DHT22;34309;47.260;2.796;2023-06-24T02:01:55;24.30;31.10
48515;DHT22;34309;47.260;2.796;2023-06-24T02:04:33;24.30;31.20
48515;DHT22;34309;47.260;2.796;2023-06-24T02:07:08;24.30;31.30
48515;DHT22;34309;47.260;2.796;2023-06-24T02:09:43;24.30;31.30
48515;DHT22;34309;47.260;2.796;2023-06-24T02:12:18;24.30;31.40
48515;DHT22;34309;47.260;2.796;2023-06-24T02:14:52;24.30;31.30
48515;DHT22;34309;47.260;2.796;2023-06-24T02:17:27;24.30;31.40
48515;DHT22;34309;47.260;2.796;2023-06-24T02:20:04;24.30;31.30
48515;DHT22;34309;47.260;2.796;2023-06-24T02:22:40;24.20;31.30
48515;DHT22;34309;47.260;2.796;2023-06-24T02:25:16;24.20;31.30
48515;DHT22;34309;47.260;2.796;2023-06-24T02:27:50;24.20;31.20
48515;DHT22;34309;47.260;2.796;2023-06-24T02:30:25;24.20;31.30
48515;DHT22;34309;47.260;2.796;2023-06-24T02:32:58;24.20;31.20
48515;DHT22;34309;47.260;2.796;2023-06-24T02:35:34;24.20;31.30
48515;DHT22;34309;47.260;2.796;2023-06-24T02:38:07;24.20;31.30
48515;DHT22;34309;47.260;2.796;2023-06-24T02:40:43;24.20;31.40
48515;DHT22;34309;47.260;2.796;2023-06-24T02:43:17;24.20;31.40
48515;DHT22;34309;47.260;2.796;2023-06-24T02:45:52;24.20;31.50
48515;DHT22;34309;47.260;2.796;2023-06-24T02:48:29;24.20;31.50
48515;DHT22;34309;47.260;2.796;2023-06-24T02:51:07;24.20;31.40
48515;DHT22;34309;47.260;2.796;2023-06-24T02:53:43;24.20;31.50
48515;DHT22;34309;47.260;2.796;2023-06-24T02:56:17;24.20;31.50
48515;DHT22;34309;47.260;2.796;2023-06-24T02:58:54;24.20;31.50
48515;DHT22;34309;47.260;2.796;2023-06-24T03:01:31;24.20;31.50
48515;DHT22;34309;47.260;2.796;2023-06-24T03:04:06;24.10;31.30
48515;DHT22;34309;47.260;2.796;2023-06-24T03:06:42;24.20;31.50
48515;DHT22;34309;47.260;2.796;2023-06-24T03:09:16;24.10;31.40
48515;DHT22;34309;47.260;2.796;2023-06-24T03:11:51;24.10;31.40
48515;DHT22;34309;47.260;2.796;2023-06-24T03:14:25;24.10;31.50
48515;DHT22;34309;47.260;2.796;2023-06-24T03:16:58;24.10;31.50
48515;DHT22;34309;47.260;2.796;2023-06-24T03:19:32;24.10;31.50
48515;DHT22;34309;47.260;2.796;2023-06-24T03:22:07;24.10;31.30
48515;DHT22;34309;47.260;2.796;2023-06-24T03:24:41;24.10;31.50
48515;DHT22;34309;47.260;2.796;2023-06-24T03:27:14;24.10;31.40
48515;DHT22;34309;47.260;2.796;2023-06-24T03:29:48;24.10;31.30
48515;DHT22;34309;47.260;2.796;2023-06-24T03:32:22;24.00;31.40
48515;DHT22;34309;47.260;2.796;2023-06-24T03:34:55;24.10;31.30
48515;DHT22;34309;47.260;2.796;2023-06-24T03:37:30;24.10;31.40
48515;DHT22;34309;47.260;2.796;2023-06-24T03:40:05;24.00;31.40
48515;DHT22;34309;47.260;2.796;2023-06-24T03:42:40;24.00;31.40
48515;DHT22;34309;47.260;2.796;2023-06-24T03:45:14;24.00;31.50
48515;DHT22;34309;47.260;2.796;2023-06-24T03:47:48;24.00;31.40
48515;DHT22;34309;47.260;2.796;2023-06-24T03:50:21;24.00;31.50
48515;DHT22;34309;47.260;2.796;2023-06-24T03:52:56;24.00;31.40
48515;DHT22;34309;47.260;2.796;2023-06-24T03:55:30;24.00;31.40
48515;DHT22;34309;47.260;2.796;2023-06-24T03:58:04;24.00;31.60
48515;DHT22;34309;47.260;2.796;2023-06-24T04:00:32;24.00;31.50
48515;DHT22;34309;47.260;2.796;2023-06-24T04:03:08;24.00;31.60
48515;DHT22;34309;47.260;2.796;2023-06-24T04:05:42;24.00;31.60
48515;DHT22;34309;47.260;2.796;2023-06-24T04:08:17;24.00;31.70
48515;DHT22;34309;47.260;2.796;2023-06-24T04:10:51;24.00;31.50
48515;DHT22;34309;47.260;2.796;2023-06-24T04:13:24;24.00;31.60
48515;DHT22;34309;47.260;2.796;2023-06-24T04:15:58;24.00;31.50
48515;DHT22;34309;47.260;2.796;2023-06-24T04:18:32;24.00;31.70
48515;DHT22;34309;47.260;2.796;2023-06-24T04:21:06;23.90;31.70
48515;DHT22;34309;47.260;2.796;2023-06-24T04:23:41;23.90;31.50
48515;DHT22;34309;47.260;2.796;2023-06-24T04:26:15;23.90;31.50
48515;DHT22;34309;47.260;2.796;2023-06-24T04:28:49;23.90;31.60
48515;DHT22;34309;47.260;2.796;2023-06-24T04:31:22;23.90;31.50
48515;DHT22;34309;47.260;2.796;2023-06-24T04:33:56;23.90;31.60
48515;DHT22;34309;47.260;2.796;2023-06-24T04:36:29;23.90;31.50
48515;DHT22;34309;47.260;2.796;2023-06-24T04:39:05;23.90;31.50
48515;DHT22;34309;47.260;2.796;2023-06-24T04:41:38;23.90;31.60
48515;DHT22;34309;47.260;2.796;2023-06-24T04:44:12;23.90;31.70
48515;DHT22;34309;47.260;2.796;2023-06-24T04:46:46;23.90;31.60
48515;DHT22;34309;47.260;2.796;2023-06-24T04:49:19;23.90;31.80
48515;DHT22;34309;47.260;2.796;2023-06-24T04:51:53;23.90;31.80
48515;DHT22;34309;47.260;2.796;2023-06-24T04:54:28;23.90;31.80
48515;DHT22;34309;47.260;2.796;2023-06-24T04:57:02;23.90;31.80
48515;DHT22;34309;47.260;2.796;2023-06-24T04:59:36;23.90;31.80
48515;DHT22;34309;47.260;2.796;2023-06-24T05:02:11;23.90;31.90
48515;DHT22;34309;47.260;2.796;2023-06-24T05:04:45;23.90;31.70
48515;DHT22;34309;47.260;2.796;2023-06-24T05:07:19;23.90;31.90
48515;DHT22;34309;47.260;2.796;2023-06-24T05:09:54;23.90;31.70
48515;DHT22;34309;47.260;2.796;2023-06-24T05:12:23;23.90;31.80
48515;DHT22;34309;47.260;2.796;2023-06-24T05:14:56;23.90;31.90
48515;DHT22;34309;47.260;2.796;2023-06-24T05:17:30;23.90;31.90
48515;DHT22;34309;47.260;2.796;2023-06-24T05:20:05;23.90;32.10
48515;DHT22;34309;47.260;2.796;2023-06-24T05:22:39;23.90;32.20
48515;DHT22;34309;47.260;2.796;2023-06-24T05:25:09;23.90;32.10
48515;DHT22;34309;47.260;2.796;2023-06-24T05:27:43;23.90;32.10
48515;DHT22;34309;47.260;2.796;2023-06-24T05:30:18;23.80;32.00
48515;DHT22;34309;47.260;2.796;2023-06-24T05:32:52;23.90;32.20
48515;DHT22;34309;47.260;2.796;2023-06-24T05:35:26;23.90;32.20
48515;DHT22;34309;47.260;2.796;2023-06-24T05:38:00;23.90;32.30
48515;DHT22;34309;47.260;2.796;2023-06-24T05:40:35;23.90;32.20
48515;DHT22;34309;47.260;2.796;2023-06-24T05:43:09;23.90;32.20
48515;DHT22;34309;47.260;2.796;2023-06-24T05:45:44;23.90;32.20
48515;DHT22;34309;47.260;2.796;2023-06-24T05:48:20;23.90;32.10
48515;DHT22;34309;47.260;2.796;2023-06-24T05:50:54;23.90;32.50
48515;DHT22;34309;47.260;2.796;2023-06-24T05:53:28;23.90;32.40
48515;DHT22;34309;47.260;2.796;2023-06-24T05:56:05;23.90;32.60
48515;DHT22;34309;47.260;2.796;2023-06-24T05:58:39;23.90;32.60
48515;DHT22;34309;47.260;2.796;2023-06-24T06:01:12;24.00;32.50
48515;DHT22;34309;47.260;2.796;2023-06-24T06:03:46;24.00;32.60
48515;DHT22;34309;47.260;2.796;2023-06-24T06:06:20;24.00;32.70
48515;DHT22;34309;47.260;2.796;2023-06-24T06:08:54;24.00;33.50
48515;DHT22;34309;47.260;2.796;2023-06-24T06:11:29;24.00;32.70
48515;DHT22;34309;47.260;2.796;2023-06-24T06:13:57;24.00;33.00
48515;DHT22;34309;47.260;2.796;2023-06-24T06:16:31;24.00;33.10
48515;DHT22;34309;47.260;2.796;2023-06-24T06:19:05;24.00;33.20
48515;DHT22;34309;47.260;2.796;2023-06-24T06:21:38;24.00;33.30
48515;DHT22;34309;47.260;2.796;2023-06-24T06:24:12;24.00;33.30
48515;DHT22;34309;47.260;2.796;2023-06-24T06:26:47;24.00;33.40
48515;DHT22;34309;47.260;2.796;2023-06-24T06:29:21;24.00;33.90
48515;DHT22;34309;47.260;2.796;2023-06-24T06:31:55;24.00;35.00
48515;DHT22;34309;47.260;2.796;2023-06-24T06:34:30;24.00;35.80
48515;DHT22;34309;47.260;2.796;2023-06-24T06:37:04;24.00;36.20
48515;DHT22;34309;47.260;2.796;2023-06-24T06:39:38;23.90;36.40
48515;DHT22;34309;47.260;2.796;2023-06-24T06:42:14;24.00;36.40
48515;DHT22;34309;47.260;2.796;2023-06-24T06:44:48;24.00;36.30
48515;DHT22;34309;47.260;2.796;2023-06-24T06:47:22;24.00;36.50
48515;DHT22;34309;47.260;2.796;2023-06-24T06:49:56;24.00;36.20
48515;DHT22;34309;47.260;2.796;2023-06-24T06:52:30;23.90;35.70
48515;DHT22;34309;47.260;2.796;2023-06-24T06:55:04;23.90;35.60
48515;DHT22;34309;47.260;2.796;2023-06-24T06:57:39;23.90;35.50
48515;DHT22;34309;47.260;2.796;2023-06-24T07:00:13;23.90;35.90
48515;DHT22;34309;47.260;2.796;2023-06-24T07:02:47;23.90;35.60
48515;DHT22;34309;47.260;2.796;2023-06-24T07:05:21;23.90;35.30
48515;DHT22;34309;47.260;2.796;2023-06-24T07:07:55;24.00;35.30
48515;DHT22;34309;47.260;2.796;2023-06-24T07:10:29;24.00;35.20
48515;DHT22;34309;47.260;2.796;2023-06-24T07:13:04;24.00;35.10
48515;DHT22;34309;47.260;2.796;2023-06-24T07:15:37;24.00;35.00
48515;DHT22;34309;47.260;2.796;2023-06-24T07:18:13;24.00;35.20
48515;DHT22;34309;47.260;2.796;2023-06-24T07:20:47;24.00;35.20
48515;DHT22;34309;47.260;2.796;2023-06-24T07:23:21;24.00;35.10
48515;DHT22;34309;47.260;2.796;2023-06-24T07:25:55;24.00;35.20
48515;DHT22;34309;47.260;2.796;2023-06-24T07:28:25;24.00;35.20
48515;DHT22;34309;47.260;2.796;2023-06-24T07:30:59;24.00;35.00
48515;DHT22;34309;47.260;2.796;2023-06-24T07:33:33;24.00;34.80
48515;DHT22;34309;47.260;2.796;2023-06-24T07:36:07;24.00;34.60
48515;DHT22;34309;47.260;2.796;2023-06-24T07:38:41;24.00;34.60
48515;DHT22;34309;47.260;2.796;2023-06-24T07:41:14;24.00;35.20
48515;DHT22;34309;47.260;2.796;2023-06-24T07:43:50;24.10;34.80
48515;DHT22;34309;47.260;2.796;2023-06-24T07:46:24;24.10;34.60
48515;DHT22;34309;47.260;2.796;2023-06-24T07:49:00;24.10;34.60
48515;DHT22;34309;47.260;2.796;2023-06-24T07:51:34;24.10;34.30
48515;DHT22;34309;47.260;2.796;2023-06-24T07:54:08;24.10;34.50
48515;DHT22;34309;47.260;2.796;2023-06-24T07:56:42;24.20;34.00
48515;DHT22;34309;47.260;2.796;2023-06-24T07:59:17;24.20;34.10
48515;DHT22;34309;47.260;2.796;2023-06-24T08:01:51;24.20;34.00
48515;DHT22;34309;47.260;2.796;2023-06-24T08:04:25;24.20;33.90
48515;DHT22;34309;47.260;2.796;2023-06-24T08:06:59;24.20;34.00
48515;DHT22;34309;47.260;2.796;2023-06-24T08:09:32;24.20;33.90
48515;DHT22;34309;47.260;2.796;2023-06-24T08:12:07;24.30;34.00
48515;DHT22;34309;47.260;2.796;2023-06-24T08:14:42;24.30;33.90
48515;DHT22;34309;47.260;2.796;2023-06-24T08:17:16;24.30;34.00
48515;DHT22;34309;47.260;2.796;2023-06-24T08:19:50;24.30;34.00
48515;DHT22;34309;47.260;2.796;2023-06-24T08:22:24;24.30;34.00
48515;DHT22;34309;47.260;2.796;2023-06-24T08:24:58;24.30;33.80
48515;DHT22;34309;47.260;2.796;2023-06-24T08:27:35;24.30;33.90
48515;DHT22;34309;47.260;2.796;2023-06-24T08:30:12;24.30;33.80
48515;DHT22;34309;47.260;2.796;2023-06-24T08:32:46;24.40;33.80
48515;DHT22;34309;47.260;2.796;2023-06-24T08:35:20;24.30;33.20
48515;DHT22;34309;47.260;2.796;2023-06-24T08:37:54;24.40;33.30
48515;DHT22;34309;47.260;2.796;2023-06-24T08:40:27;24.40;33.40
48515;DHT22;34309;47.260;2.796;2023-06-24T08:43:02;24.40;33.30
48515;DHT22;34309;47.260;2.796;2023-06-24T08:45:37;24.40;33.60
48515;DHT22;34309;47.260;2.796;2023-06-24T08:48:12;24.40;33.50
48515;DHT22;34309;47.260;2.796;2023-06-24T08:50:51;24.50;33.40
48515;DHT22;34309;47.260;2.796;2023-06-24T08:53:26;24.40;33.20
48515;DHT22;34309;47.260;2.796;2023-06-24T08:56:01;24.40;33.20
48515;DHT22;34309;47.260;2.796;2023-06-24T08:58:35;24.50;33.40
48515;DHT22;34309;47.260;2.796;2023-06-24T09:01:10;24.50;33.30
48515;DHT22;34309;47.260;2.796;2023-06-24T09:03:44;24.50;33.20
48515;DHT22;34309;47.260;2.796;2023-06-24T09:06:18;24.50;33.20
48515;DHT22;34309;47.260;2.796;2023-06-24T09:08:55;24.50;33.50
48515;DHT22;34309;47.260;2.796;2023-06-24T09:11:29;24.50;33.60
48515;DHT22;34309;47.260;2.796;2023-06-24T09:14:04;24.50;33.30
48515;DHT22;34309;47.260;2.796;2023-06-24T09:16:39;24.50;33.40
48515;DHT22;34309;47.260;2.796;2023-06-24T09:19:20;24.50;33.40
48515;DHT22;34309;47.260;2.796;2023-06-24T09:21:55;24.50;33.60
48515;DHT22;34309;47.260;2.796;2023-06-24T09:24:31;24.50;33.40
48515;DHT22;34309;47.260;2.796;2023-06-24T09:27:05;24.60;33.50
48515;DHT22;34309;47.260;2.796;2023-06-24T09:29:41;24.60;33.50
48515;DHT22;34309;47.260;2.796;2023-06-24T09:32:16;24.50;33.60
48515;DHT22;34309;47.260;2.796;2023-06-24T09:34:50;24.60;33.60
48515;DHT22;34309;47.260;2.796;2023-06-24T09:37:25;24.60;33.60
48515;DHT22;34309;47.260;2.796;2023-06-24T09:40:03;24.60;33.50
48515;DHT22;34309;47.260;2.796;2023-06-24T09:42:50;24.60;33.40
48515;DHT22;34309;47.260;2.796;2023-06-24T09:45:26;24.70;33.50
48515;DHT22;34309;47.260;2.796;2023-06-24T09:48:02;24.70;33.80
48515;DHT22;34309;47.260;2.796;2023-06-24T09:50:36;24.70;33.60
48515;DHT22;34309;47.260;2.796;2023-06-24T09:53:11;24.70;33.60
48515;DHT22;34309;47.260;2.796;2023-06-24T09:55:45;24.70;33.80
48515;DHT22;34309;47.260;2.796;2023-06-24T09:58:19;24.70;33.80
48515;DHT22;34309;47.260;2.796;2023-06-24T10:00:54;24.70;33.60
48515;DHT22;34309;47.260;2.796;2023-06-24T10:03:32;24.70;33.80
48515;DHT22;34309;47.260;2.796;2023-06-24T10:06:07;24.70;33.50
48515;DHT22;34309;47.260;2.796;2023-06-24T10:08:42;24.80;32.80
48515;DHT22;34309;47.260;2.796;2023-06-24T10:11:16;24.80;32.50
48515;DHT22;34309;47.260;2.796;2023-06-24T10:13:49;24.80;32.30
48515;DHT22;34309;47.260;2.796;2023-06-24T10:16:23;24.80;32.30
48515;DHT22;34309;47.260;2.796;2023-06-24T10:19:02;24.80;32.20
48515;DHT22;34309;47.260;2.796;2023-06-24T10:21:46;24.90;31.90
48515;DHT22;34309;47.260;2.796;2023-06-24T10:24:31;24.90;31.50
48515;DHT22;34309;47.260;2.796;2023-06-24T10:27:06;24.90;31.50
48515;DHT22;34309;47.260;2.796;2023-06-24T10:29:45;24.90;31.30
48515;DHT22;34309;47.260;2.796;2023-06-24T10:32:19;25.00;31.10
48515;DHT22;34309;47.260;2.796;2023-06-24T10:34:56;25.00;31.00
48515;DHT22;34309;47.260;2.796;2023-06-24T10:37:32;25.00;30.10
48515;DHT22;34309;47.260;2.796;2023-06-24T10:40:07;25.00;29.70
48515;DHT22;34309;47.260;2.796;2023-06-24T10:42:42;25.00;29.20
48515;DHT22;34309;47.260;2.796;2023-06-24T10:45:19;25.10;28.70
48515;DHT22;34309;47.260;2.796;2023-06-24T10:47:54;25.10;28.60
48515;DHT22;34309;47.260;2.796;2023-06-24T10:50:30;25.10;28.60
48515;DHT22;34309;47.260;2.796;2023-06-24T10:53:08;25.20;29.20
48515;DHT22;34309;47.260;2.796;2023-06-24T10:55:44;25.20;29.60
48515;DHT22;34309;47.260;2.796;2023-06-24T10:58:18;25.10;29.80
48515;DHT22;34309;47.260;2.796;2023-06-24T11:00:51;25.10;29.90
48515;DHT22;34309;47.260;2.796;2023-06-24T11:03:25;25.20;30.10
48515;DHT22;34309;47.260;2.796;2023-06-24T11:06:04;25.20;30.40
48515;DHT22;34309;47.260;2.796;2023-06-24T11:08:43;25.20;30.90
48515;DHT22;34309;47.260;2.796;2023-06-24T11:11:20;25.20;31.10
48515;DHT22;34309;47.260;2.796;2023-06-24T11:13:54;25.20;30.90
48515;DHT22;34309;47.260;2.796;2023-06-24T11:16:30;25.30;30.70
48515;DHT22;34309;47.260;2.796;2023-06-24T11:19:05;25.30;30.50
48515;DHT22;34309;47.260;2.796;2023-06-24T11:21:40;25.30;30.10
48515;DHT22;34309;47.260;2.796;2023-06-24T11:24:14;25.30;30.00
48515;DHT22;34309;47.260;2.796;2023-06-24T11:26:48;25.30;30.10
48515;DHT22;34309;47.260;2.796;2023-06-24T11:29:21;25.30;29.90
48515;DHT22;34309;47.260;2.796;2023-06-24T11:31:56;25.30;30.30
48515;DHT22;34309;47.260;2.796;2023-06-24T11:34:29;25.30;30.80
48515;DHT22;34309;47.260;2.796;2023-06-24T11:37:12;25.30;30.70
48515;DHT22;34309;47.260;2.796;2023-06-24T11:40:00;25.40;31.10
48515;DHT22;34309;47.260;2.796;2023-06-24T11:42:36;25.40;31.00
48515;DHT22;34309;47.260;2.796;2023-06-24T11:45:13;25.40;30.10
48515;DHT22;34309;47.260;2.796;2023-06-24T11:47:47;25.40;29.20
48515;DHT22;34309;47.260;2.796;2023-06-24T11:50:26;25.50;28.80
48515;DHT22;34309;47.260;2.796;2023-06-24T11:53:03;25.50;28.40
48515;DHT22;34309;47.260;2.796;2023-06-24T11:55:37;25.50;28.30
48515;DHT22;34309;47.260;2.796;2023-06-24T11:58:19;25.50;28.20
48515;DHT22;34309;47.260;2.796;2023-06-24T12:00:53;25.50;28.20
48515;DHT22;34309;47.260;2.796;2023-06-24T12:03:29;25.50;27.80
48515;DHT22;34309;47.260;2.796;2023-06-24T12:06:04;25.60;27.60
48515;DHT22;34309;47.260;2.796;2023-06-24T12:08:40;25.70;27.10
48515;DHT22;34309;47.260;2.796;2023-06-24T12:11:16;25.70;27.40
48515;DHT22;34309;47.260;2.796;2023-06-24T12:13:50;25.60;27.40
48515;DHT22;34309;47.260;2.796;2023-06-24T12:16:25;25.70;27.60
48515;DHT22;34309;47.260;2.796;2023-06-24T12:18:59;25.70;27.80
48515;DHT22;34309;47.260;2.796;2023-06-24T12:21:33;25.70;28.50
48515;DHT22;34309;47.260;2.796;2023-06-24T12:24:08;25.70;28.90
48515;DHT22;34309;47.260;2.796;2023-06-24T12:26:42;25.70;29.00
48515;DHT22;34309;47.260;2.796;2023-06-24T12:29:20;25.70;29.10
48515;DHT22;34309;47.260;2.796;2023-06-24T12:31:54;25.70;29.50
48515;DHT22;34309;47.260;2.796;2023-06-24T12:34:28;25.70;29.60
48515;DHT22;34309;47.260;2.796;2023-06-24T12:37:02;25.70;29.60
48515;DHT22;34309;47.260;2.796;2023-06-24T12:39:37;25.70;29.60
48515;DHT22;34309;47.260;2.796;2023-06-24T12:42:11;25.70;29.70
48515;DHT22;34309;47.260;2.796;2023-06-24T12:44:45;25.70;29.60
48515;DHT22;34309;47.260;2.796;2023-06-24T12:47:19;25.70;29.70
48515;DHT22;34309;47.260;2.796;2023-06-24T12:49:52;25.80;29.70
48515;DHT22;34309;47.260;2.796;2023-06-24T12:52:26;25.80;29.30
48515;DHT22;34309;47.260;2.796;2023-06-24T12:55:05;25.80;29.00
48515;DHT22;34309;47.260;2.796;2023-06-24T12:57:39;25.80;29.00
48515;DHT22;34309;47.260;2.796;2023-06-24T13:00:14;25.80;29.20
48515;DHT22;34309;47.260;2.796;2023-06-24T13:02:50;25.80;29.80
48515;DHT22;34309;47.260;2.796;2023-06-24T13:05:24;25.80;29.90
48515;DHT22;34309;47.260;2.796;2023-06-24T13:07:58;25.80;30.00
48515;DHT22;34309;47.260;2.796;2023-06-24T13:10:33;25.90;29.90
48515;DHT22;34309;47.260;2.796;2023-06-24T13:13:07;25.90;30.00
48515;DHT22;34309;47.260;2.796;2023-06-24T13:15:41;25.90;29.70
48515;DHT22;34309;47.260;2.796;2023-06-24T13:18:14;25.90;29.10
48515;DHT22;34309;47.260;2.796;2023-06-24T13:20:50;25.90;29.00
48515;DHT22;34309;47.260;2.796;2023-06-24T13:23:24;25.90;29.20
48515;DHT22;34309;47.260;2.796;2023-06-24T13:25:59;26.00;29.60
48515;DHT22;34309;47.260;2.796;2023-06-24T13:28:33;26.00;30.00
48515;DHT22;34309;47.260;2.796;2023-06-24T13:31:07;26.00;29.70
48515;DHT22;34309;47.260;2.796;2023-06-24T13:33:40;26.00;30.00
48515;DHT22;34309;47.260;2.796;2023-06-24T13:36:29;26.00;30.00
48515;DHT22;34309;47.260;2.796;2023-06-24T13:39:04;26.00;29.90
48515;DHT22;34309;47.260;2.796;2023-06-24T13:41:39;26.00;29.90
48515;DHT22;34309;47.260;2.796;2023-06-24T13:44:13;26.00;29.90
48515;DHT22;34309;47.260;2.796;2023-06-24T13:46:47;26.00;30.00
48515;DHT22;34309;47.260;2.796;2023-06-24T13:49:22;26.00;30.00
48515;DHT22;34309;47.260;2.796;2023-06-24T13:51:56;26.00;30.00
48515;DHT22;34309;47.260;2.796;2023-06-24T13:54:30;26.00;29.90
48515;DHT22;34309;47.260;2.796;2023-06-24T13:57:09;26.00;29.90
48515;DHT22;34309;47.260;2.796;2023-06-24T13:59:38;26.00;30.00
48515;DHT22;34309;47.260;2.796;2023-06-24T14:02:12;26.00;30.00
48515;DHT22;34309;47.260;2.796;2023-06-24T14:04:45;26.00;30.00
48515;DHT22;34309;47.260;2.796;2023-06-24T14:07:20;26.00;30.00
48515;DHT22;34309;47.260;2.796;2023-06-24T14:09:53;26.10;29.80
48515;DHT22;34309;47.260;2.796;2023-06-24T14:12:29;26.10;29.80
48515;DHT22;34309;47.260;2.796;2023-06-24T14:15:02;26.10;29.20
48515;DHT22;34309;47.260;2.796;2023-06-24T14:17:36;26.10;29.10
48515;DHT22;34309;47.260;2.796;2023-06-24T14:20:11;26.20;29.20
48515;DHT22;34309;47.260;2.796;2023-06-24T14:22:45;26.20;29.20
48515;DHT22;34309;47.260;2.796;2023-06-24T14:25:19;26.20;28.80
48515;DHT22;34309;47.260;2.796;2023-06-24T14:27:54;26.20;28.80
48515;DHT22;34309;47.260;2.796;2023-06-24T14:30:23;26.20;28.60
48515;DHT22;34309;47.260;2.796;2023-06-24T14:32:57;26.20;28.50
48515;DHT22;34309;47.260;2.796;2023-06-24T14:35:31;26.20;28.40
48515;DHT22;34309;47.260;2.796;2023-06-24T14:38:05;26.30;28.70
48515;DHT22;34309;47.260;2.796;2023-06-24T14:40:38;26.20;28.90
48515;DHT22;34309;47.260;2.796;2023-06-24T14:43:14;26.30;28.90
48515;DHT22;34309;47.260;2.796;2023-06-24T14:45:47;26.30;28.80
48515;DHT22;34309;47.260;2.796;2023-06-24T14:48:21;26.30;28.80
48515;DHT22;34309;47.260;2.796;2023-06-24T14:50:55;26.30;29.00
48515;DHT22;34309;47.260;2.796;2023-06-24T14:53:24;26.30;29.20
48515;DHT22;34309;47.260;2.796;2023-06-24T14:55:58;26.30;28.40
48515;DHT22;34309;47.260;2.796;2023-06-24T14:58:34;26.30;27.70
48515;DHT22;34309;47.260;2.796;2023-06-24T15:01:07;26.30;27.60
48515;DHT22;34309;47.260;2.796;2023-06-24T15:03:41;26.30;27.60
48515;DHT22;34309;47.260;2.796;2023-06-24T15:06:15;26.40;27.40
48515;DHT22;34309;47.260;2.796;2023-06-24T15:08:49;26.40;27.30
48515;DHT22;34309;47.260;2.796;2023-06-24T15:11:23;26.40;27.20
48515;DHT22;34309;47.260;2.796;2023-06-24T15:13:58;26.40;27.10
48515;DHT22;34309;47.260;2.796;2023-06-24T15:16:31;26.40;27.50
48515;DHT22;34309;47.260;2.796;2023-06-24T15:19:05;26.40;27.80
48515;DHT22;34309;47.260;2.796;2023-06-24T15:21:39;26.40;28.00
48515;DHT22;34309;47.260;2.796;2023-06-24T15:24:14;26.40;28.20
48515;DHT22;34309;47.260;2.796;2023-06-24T15:26:48;26.40;28.50
48515;DHT22;34309;47.260;2.796;2023-06-24T15:29:23;26.40;27.90
48515;DHT22;34309;47.260;2.796;2023-06-24T15:31:52;26.50;27.40
48515;DHT22;34309;47.260;2.796;2023-06-24T15:34:27;26.50;26.80
48515;DHT22;34309;47.260;2.796;2023-06-24T15:37:01;26.60;26.40
48515;DHT22;34309;47.260;2.796;2023-06-24T15:39:34;26.60;26.40
48515;DHT22;34309;47.260;2.796;2023-06-24T15:42:08;26.60;26.20
48515;DHT22;34309;47.260;2.796;2023-06-24T15:44:44;26.60;25.90
48515;DHT22;34309;47.260;2.796;2023-06-24T15:47:18;26.60;26.00
48515;DHT22;34309;47.260;2.796;2023-06-24T15:49:52;26.60;25.80
48515;DHT22;34309;47.260;2.796;2023-06-24T15:52:26;26.70;25.90
48515;DHT22;34309;47.260;2.796;2023-06-24T15:55:00;26.70;26.10
48515;DHT22;34309;47.260;2.796;2023-06-24T15:57:34;26.60;26.30
48515;DHT22;34309;47.260;2.796;2023-06-24T16:00:11;26.70;26.60
48515;DHT22;34309;47.260;2.796;2023-06-24T16:02:45;26.70;27.00
48515;DHT22;34309;47.260;2.796;2023-06-24T16:05:19;26.70;26.90
48515;DHT22;34309;47.260;2.796;2023-06-24T16:07:53;26.70;27.10
48515;DHT22;34309;47.260;2.796;2023-06-24T16:10:27;26.70;27.00
48515;DHT22;34309;47.260;2.796;2023-06-24T16:13:01;26.70;27.20
48515;DHT22;34309;47.260;2.796;2023-06-24T16:15:36;26.70;27.80
48515;DHT22;34309;47.260;2.796;2023-06-24T16:18:10;26.70;27.90
48515;DHT22;34309;47.260;2.796;2023-06-24T16:20:43;26.70;28.00
48515;DHT22;34309;47.260;2.796;2023-06-24T16:23:17;26.70;28.00